Flight Track Log - Related Links

Times and Time Zones

All times are in EDT time to prevent confusion due to time zone crossing. See the VNR160 flight status page for this flight to view local times or setup timezone preferences in your user account.

Time Position Orientation Groundspeed Altitude Reporting Facility
EDT Latitude Longitude Course Direction KTS MPH feet Rate Location/Type
Sun 07:12:27 PM 42.8131 -72.3806 277° West 342 394 6,900  Level Boston Center
Sun 07:13:27 PM 42.8275 -72.4569 284° West 253 291 8,600 1,900 Climbing Boston Center
Sun 07:14:27 PM 42.8422 -72.5336 285° West 228 262 10,700 2,000 Climbing Boston Center
Sun 07:15:27 PM 42.8567 -72.6072 285° West 216 249 12,600 1,900 Climbing Boston Center
Sun 07:16:27 PM 42.8733 -72.6867 286° West 216 249 14,500 1,900 Climbing Boston Center
Sun 07:17:00 PM 42.9419 -72.9107 277° West  Level FlightAware Approximate
Sun 07:17:27 PM 42.8856 -72.7658 282° West 216 249 16,400  Level Boston Center
Sun 07:18:27 PM 42.9019 -72.8425 286° West 216 249 18,200 1,600 Climbing Boston Center
Sun 07:19:27 PM 42.9161 -72.9278 283° West 216 249 19,600 1,350 Climbing Boston Center
Sun 07:20:27 PM 42.9264 -72.9903 283° West 216 249 20,900 1,500 Climbing Boston Center
Sun 07:21:27 PM 42.9489 -73.0811 289° West 222 255 22,600 1,550 Climbing Boston Center
Sun 07:22:27 PM 42.9608 -73.1636 281° West 222 255 24,000 1,450 Climbing Boston Center
Sun 07:23:27 PM 42.9789 -73.2461 287° West 222 255 25,500 1,400 Climbing Boston Center
Sun 07:24:27 PM 42.9931 -73.3286 283° West 222 255 26,800 1,250 Climbing Boston Center
Sun 07:25:27 PM 42.9964 -73.4281 273° West 222 255 28,000 600 Climbing Boston Center
Sun 07:26:27 PM 43.0039 -73.5275 276° West 243 280 28,000  Level Boston Center
Sun 07:27:27 PM 43.0131 -73.6356 277° West 271 312 28,000 300 Level Boston Center
Sun 07:28:27 PM 43.0203 -73.7464 275° West 287 330 28,600 800 Climbing Boston Center
Sun 07:29:27 PM 43.0294 -73.8544 277° West 294 338 29,600 1,000 Climbing Boston Center
Sun 07:30:27 PM 43.0364 -73.9597 275° West 289 333 30,600 1,000 Climbing Boston Center
Sun 07:31:27 PM 43.0433 -74.0594 275° West 279 321 31,600 1,000 Climbing Boston Center
Sun 07:32:27 PM 43.0481 -74.1533 274° West 272 313 32,600 700 Climbing Boston Center
Sun 07:33:27 PM 43.0550 -74.2500 276° West 266 306 33,000 200 Climbing Boston Center
Sun 07:34:27 PM 43.0594 -74.3553 273° West 266 306 33,000  Level Boston Center
Sun 07:35:27 PM 43.0661 -74.4608 275° West 277 319 33,000  Level Boston Center
Sun 07:36:27 PM 43.0828 -74.5694 282° West 283 326 33,000  Level Boston Center
Sun 07:37:27 PM 43.1375 -74.6622 309° West 294 338 33,000  Level Boston Center
Sun 07:38:27 PM 43.1939 -74.7611 308° West 307 353 33,000  Level Boston Center
Sun 07:39:27 PM 43.2522 -74.8575 310° West 319 367 33,000 450 Level Boston Center
Sun 07:40:27 PM 43.3064 -74.9481 309° West 325 374 33,900 500 Climbing Boston Center
Sun 07:41:27 PM 43.3461 -75.0469 299° West 319 367 34,000 50 Climbing Boston Center
Sun 07:42:27 PM 43.3517 -75.1669 274° West 301 346 34,000  Level Boston Center
Sun 07:43:27 PM 43.3553 -75.2672 273° West 296 341 34,000  Level Boston Center
Sun 07:44:27 PM 43.3608 -75.3844 274° West 301 346 34,000  Level Boston Center
Sun 07:46:16 PM 43.3675 -75.5906 273° West 306 352 34,000  Level Cleveland Center
Sun 07:46:40 PM 43.3667 -75.6167 267° West 300 345 34,000  Level Toronto Center
Sun 07:47:40 PM 43.3667 -75.7333 270° West 310 357 34,000  Level Toronto Center
Sun 07:48:40 PM 43.3667 -75.8500 270° West 300 345 34,000  Level Toronto Center
Sun 07:49:40 PM 43.3667 -75.9667 270° West 300 345 34,000  Level Toronto Center
Sun 07:50:40 PM 43.3667 -76.0833 270° West 300 345 34,000  Level Toronto Center
Sun 07:51:40 PM 43.3833 -76.2000 281° West 290 334 34,000  Level Toronto Center
Sun 07:52:40 PM 43.3833 -76.2833 270° West 290 334 34,000  Level Toronto Center
Sun 07:53:16 PM 43.3950 -76.3831 279° West 301 346 34,000  Level Cleveland Center
Sun 07:53:40 PM 43.3833 -76.4167 244° Southwest 290 334 34,000  Level Toronto Center
Sun 07:54:40 PM 43.3833 -76.5167 270° West 290 334 34,000  Level Toronto Center
Sun 07:55:40 PM 43.3833 -76.6333 270° West 290 334 34,000  Level Toronto Center
Sun 07:56:16 PM 43.4044 -76.7139 290° West 289 333 34,000  Level Cleveland Center
Sun 07:57:16 PM 43.4081 -76.8253 273° West 289 333 34,000  Level Cleveland Center
Sun 07:58:16 PM 43.4094 -76.9394 271° West 289 333 34,000  Level Cleveland Center
Sun 07:59:16 PM 43.4111 -77.0594 271° West 289 333 34,000  Level Cleveland Center
Sun 08:00:16 PM 43.4142 -77.1594 272° West 289 333 34,000  Level Cleveland Center
Sun 08:01:16 PM 43.4133 -77.2739 269° West 289 333 34,000  Level Cleveland Center
Sun 08:02:16 PM 43.4186 -77.3850 274° West 289 333 34,000  Level Cleveland Center
Sun 08:03:16 PM 43.4194 -77.4992 271° West 294 338 34,000  Level Cleveland Center
Sun 08:04:16 PM 43.4203 -77.6108 271° West 294 338 34,000  Level Cleveland Center
Sun 08:05:16 PM 43.4253 -77.7247 273° West 294 338 34,000  Level Cleveland Center
Sun 08:06:16 PM 43.4261 -77.8392 271° West 294 338 34,000  Level Cleveland Center
Sun 08:07:16 PM 43.4264 -77.9506 270° West 294 338 34,000  Level Cleveland Center
Sun 08:08:16 PM 43.4292 -78.0678 272° West 294 338 34,000  Level Cleveland Center
Sun 08:09:16 PM 43.4314 -78.1819 272° West 294 338 34,000  Level Cleveland Center
Sun 08:10:16 PM 43.4339 -78.2933 272° West 294 338 34,000  Level Cleveland Center
Sun 08:11:16 PM 43.4339 -78.4078 270° West 299 344 34,000  Level Cleveland Center
Sun 08:12:16 PM 43.4358 -78.5192 271° West 299 344 34,000  Level Cleveland Center
Sun 08:13:16 PM 43.4358 -78.6336 270° West 299 344 34,000  Level Cleveland Center
Sun 08:13:40 PM 43.4333 -78.6667 264° West 300 345 34,000  Level Toronto Center
Sun 08:14:40 PM 43.4333 -78.7833 270° West 300 345 34,000  Level Toronto Center
Sun 08:15:40 PM 43.4333 -78.9000 270° West 300 345 34,000  Level Toronto Center
Sun 08:16:40 PM 43.4333 -79.0167 270° West 300 345 34,000  Level Toronto Center
Sun 08:17:40 PM 43.4333 -79.1333 270° West 300 345 34,000  Level Toronto Center
Sun 08:18:40 PM 43.4333 -79.2500 270° West 300 345 34,000  Level Toronto Center
Sun 08:19:40 PM 43.4333 -79.3500 270° West 300 345 34,000  Level Toronto Center
Sun 08:20:40 PM 43.4333 -79.4667 270° West 300 345 34,000  Level Toronto Center
Sun 08:21:40 PM 43.4333 -79.5833 270° West 300 345 34,000  Level Toronto Center
Sun 08:22:40 PM 43.4333 -79.7000 270° West 300 345 34,000  Level Toronto Center
Sun 08:23:40 PM 43.4333 -79.8333 270° West 300 345 34,000  Level Toronto Center
Sun 08:24:40 PM 43.4333 -79.9333 270° West 300 345 34,000  Level Toronto Center
Sun 08:25:40 PM 43.4333 -80.0500 270° West 300 345 34,000  Level Toronto Center
Sun 08:26:40 PM 43.4333 -80.1833 270° West 310 357 34,000  Level Toronto Center
Sun 08:27:40 PM 43.4333 -80.3000 270° West 310 357 34,000  Level Toronto Center
Sun 08:28:40 PM 43.4333 -80.4167 270° West 310 357 34,000  Level Toronto Center
Sun 08:29:40 PM 43.4333 -80.5333 270° West 310 357 34,000  Level Toronto Center
Sun 08:30:40 PM 43.4333 -80.6500 270° West 310 357 34,000  Level Toronto Center
Sun 08:31:40 PM 43.4333 -80.7500 270° West 310 357 34,000  Level Toronto Center
Sun 08:32:40 PM 43.4167 -80.8667 259° West 310 357 34,000  Level Toronto Center
Sun 08:33:40 PM 43.4167 -80.9833 270° West 310 357 34,000  Level Toronto Center
Sun 08:34:40 PM 43.4167 -81.1333 270° West 310 357 34,000  Level Toronto Center
Sun 08:35:40 PM 43.4167 -81.2167 270° West 310 357 34,000  Level Toronto Center
Sun 08:36:40 PM 43.4167 -81.3500 270° West 310 357 34,000  Level Toronto Center
Sun 08:37:40 PM 43.4167 -81.4667 270° West 310 357 34,000  Level Toronto Center
Sun 08:38:40 PM 43.4167 -81.5833 270° West 310 357 34,000  Level Toronto Center
Sun 08:39:40 PM 43.4167 -81.7000 270° West 310 357 34,000  Level Toronto Center
Sun 08:40:40 PM 43.4167 -81.8167 270° West 310 357 34,000  Level Toronto Center
Sun 08:41:40 PM 43.4000 -81.9500 260° West 310 357 34,000  Level Toronto Center
Sun 08:42:40 PM 43.4000 -82.0667 270° West 310 357 34,000  Level Toronto Center
Sun 08:43:52 PM 43.4117 -82.2006 277° West 309 356 34,000  Level Cleveland Center
Sun 08:44:52 PM 43.4078 -82.3206 267° West 309 356 34,000  Level Cleveland Center
Sun 08:45:52 PM 43.4081 -82.4406 270° West 309 356 34,000  Level Cleveland Center
Sun 08:46:52 PM 43.4019 -82.5633 266° West 314 361 34,000  Level Cleveland Center
Sun 08:47:52 PM 43.3997 -82.6833 269° West 314 361 34,000  Level Cleveland Center
Sun 08:48:52 PM 43.3953 -82.8031 267° West 314 361 34,000  Level Cleveland Center
Sun 08:49:52 PM 43.3931 -82.9231 269° West 314 361 34,000  Level Cleveland Center
Sun 08:50:52 PM 43.3883 -83.0456 267° West 319 367 34,000  Level Cleveland Center
Sun 08:51:52 PM 43.3836 -83.1656 267° West 319 367 34,000  Level Cleveland Center
Sun 08:52:52 PM 43.3831 -83.2883 270° West 324 373 34,000  Level Cleveland Center
Sun 08:53:52 PM 43.3781 -83.4050 267° West 324 373 34,000  Level Cleveland Center
Sun 08:54:52 PM 43.3750 -83.5278 268° West 324 373 34,000  Level Cleveland Center
Sun 08:55:52 PM 43.3700 -83.6475 267° West 324 373 34,000  Level Cleveland Center
Sun 08:56:52 PM 43.3664 -83.7758 268° West 329 379 34,000  Level Cleveland Center
Sun 08:57:52 PM 43.3608 -83.8983 266° West 329 379 34,000  Level Cleveland Center
Sun 08:58:52 PM 43.3572 -84.0239 268° West 329 379 34,000  Level Cleveland Center
Sun 08:59:52 PM 43.3514 -84.1522 266° West 329 379 34,000  Level Cleveland Center
Sun 09:01:35 PM 43.3431 -84.3814 267° West 335 386 34,000  Level Minneapolis Center
Sun 09:02:37 PM 43.3383 -84.5097 267° West 336 387 34,000  Level Minneapolis Center
Sun 09:03:39 PM 43.3322 -84.6372 266° West 336 387 34,000  Level Minneapolis Center
Sun 09:04:40 PM 43.3267 -84.7653 267° West 338 389 34,000  Level Minneapolis Center
Sun 09:05:42 PM 43.3219 -84.8944 267° West 339 390 34,000  Level Minneapolis Center
Sun 09:06:44 PM 43.3147 -85.0242 266° West 341 392 34,000  Level Minneapolis Center
Sun 09:07:46 PM 43.3083 -85.1817 267° West 344 396 34,000  Level Minneapolis Center
Sun 09:08:47 PM 43.3019 -85.3128 266° West 346 398 34,000  Level Minneapolis Center
Sun 09:09:49 PM 43.2953 -85.4439 266° West 346 398 34,000  Level Minneapolis Center
Sun 09:10:51 PM 43.2883 -85.5764 266° West 349 402 34,000  Level Minneapolis Center
Sun 09:11:52 PM 43.2817 -85.7083 266° West 349 402 34,000  Level Minneapolis Center
Sun 09:12:54 PM 43.2753 -85.8394 266° West 349 402 34,000  Level Minneapolis Center
Sun 09:13:56 PM 43.2667 -85.9983 266° West 351 404 34,000  Level Minneapolis Center
Sun 09:14:57 PM 43.2592 -86.1300 266° West 352 405 34,000  Level Minneapolis Center
Sun 09:15:59 PM 43.2519 -86.2619 266° West 352 405 34,000  Level Minneapolis Center
Sun 09:17:01 PM 43.2439 -86.3944 265° West 351 404 34,000  Level Minneapolis Center
Sun 09:18:02 PM 43.2369 -86.5275 266° West 352 405 34,000  Level Minneapolis Center
Sun 09:19:04 PM 43.2272 -86.6886 265° West 355 409 34,000  Level Minneapolis Center
Sun 09:20:05 PM 43.2192 -86.8219 265° West 354 407 34,000  Level Minneapolis Center
Sun 09:21:07 PM 43.2100 -86.9556 265° West 354 407 34,000  Level Minneapolis Center
Sun 09:22:08 PM 43.2014 -87.0897 265° West 354 407 34,000  Level Minneapolis Center
Sun 09:23:10 PM 43.2097 -87.2206 275° West 351 404 34,000  Level Minneapolis Center
Sun 09:24:11 PM 43.2556 -87.3539 295° West 355 409 34,000  Level Minneapolis Center
Sun 09:24:26 PM 43.2628 -87.3756 295° West 357 411 34,000  Level Chicago Center
Sun 09:25:27 PM 43.3028 -87.4989 294° West 357 411 34,000  Level Chicago Center
Sun 09:26:29 PM 43.3508 -87.6431 295° West 357 411 34,000  Level Chicago Center
Sun 09:27:31 PM 43.3911 -87.7678 294° West 358 412 34,000  Level Chicago Center
Sun 09:28:33 PM 43.4306 -87.8914 294° West 355 409 34,000  Level Chicago Center
Sun 09:29:35 PM 43.4711 -88.0156 294° West 357 411 34,000  Level Chicago Center
Sun 09:30:37 PM 43.5108 -88.1392 294° West 356 410 34,000  Level Chicago Center
Sun 09:31:38 PM 43.5578 -88.2811 295° West 353 406 34,000  Level Chicago Center
Sun 09:32:40 PM 43.5975 -88.4061 294° West 358 412 34,000  Level Chicago Center
Sun 09:33:36 PM 43.6356 -88.5289 293° West 355 409 34,000  Level Minneapolis Center
Sun 09:34:37 PM 43.6739 -88.6511 293° West 351 404 34,000  Level Minneapolis Center
Sun 09:35:39 PM 43.7122 -88.7728 294° West 349 402 34,000  Level Minneapolis Center
Sun 09:36:40 PM 43.7500 -88.8936 293° West 345 397 34,000  Level Minneapolis Center
Sun 09:37:41 PM 43.7875 -89.0144 293° West 343 395 34,000  Level Minneapolis Center
Sun 09:38:43 PM 43.8244 -89.1356 293° West 342 394 34,000  Level Minneapolis Center
Sun 09:39:44 PM 43.8617 -89.2572 293° West 343 395 34,000  Level Minneapolis Center
Sun 09:40:45 PM 43.8992 -89.3792 293° West 343 395 34,000  Level Minneapolis Center
Sun 09:41:46 PM 43.9431 -89.5217 293° West 345 397 34,000  Level Minneapolis Center
Sun 09:42:48 PM 43.9803 -89.6458 293° West 346 398 34,000  Level Minneapolis Center
Sun 09:43:49 PM 44.0181 -89.7700 293° West 349 402 34,000  Level Minneapolis Center
Sun 09:44:50 PM 44.0558 -89.8919 293° West 346 398 34,000  Level Minneapolis Center
Sun 09:45:51 PM 44.1019 -90.0100 299° West 349 402 34,000  Level Minneapolis Center
Sun 09:46:53 PM 44.1636 -90.1181 309° West 354 407 34,000  Level Minneapolis Center
Sun 09:47:54 PM 44.2231 -90.2258 308° West 354 407 34,000  Level Minneapolis Center
Sun 09:48:55 PM 44.2819 -90.3339 307° West 350 403 34,000  Level Minneapolis Center
Sun 09:49:56 PM 44.3408 -90.4406 308° West 348 400 34,000  Level Minneapolis Center
Sun 09:50:57 PM 44.3997 -90.5497 307° West 349 402 34,000  Level Minneapolis Center
Sun 09:51:59 PM 44.4692 -90.6736 308° West 348 400 34,000  Level Minneapolis Center
Sun 09:53:00 PM 44.5278 -90.7819 307° West 349 402 34,000  Level Minneapolis Center
Sun 09:54:01 PM 44.5864 -90.8942 306° West 350 403 34,000 -344 Level Minneapolis Center
Sun 09:55:02 PM 44.6386 -90.9892 308° West 344 396 33,300 -1,574 Descending Minneapolis Center
Sun 09:56:03 PM 44.6922 -91.1089 302° West 356 410 30,800 -2,508 Descending Minneapolis Center
Sun 09:57:04 PM 44.7117 -91.2397 282° West 347 399 28,200 -2,508 Descending Minneapolis Center
Sun 09:58:05 PM 44.7283 -91.3686 280° West 340 391 25,700 -2,661 Descending Minneapolis Center
Sun 09:59:08 PM 44.7481 -91.5189 281° West 330 380 22,700 -2,565 Descending Minneapolis Center
Sun 10:00:09 PM 44.7625 -91.6383 280° West 320 368 20,400 -2,244 Descending Minneapolis Center
Sun 10:01:11 PM 44.7772 -91.7483 281° West 298 343 18,100 -2,098 Descending Minneapolis Center
Sun 10:02:12 PM 44.7900 -91.8561 280° West 285 328 16,100 -2,124 Descending Minneapolis Center
Sun 10:03:04 PM 44.8106 -91.9508 287° West 274 315 14,100 -2,333 Descending FAA TRACON SMA TRACON (SMA)
Sun 10:03:24 PM 44.8156 -91.9919 280° West 277 319 13,300 -2,250 Descending FAA TRACON SMA TRACON (SMA)
Sun 10:03:44 PM 44.8178 -92.0236 276° West 269 310 12,600 -1,902 Descending FAA TRACON SMA TRACON (SMA)
Sun 10:04:05 PM 44.8219 -92.0544 281° West 260 299 12,000 -1,950 Descending FAA TRACON SMA TRACON (SMA)
Sun 10:04:24 PM 44.8267 -92.0917 280° West 252 290 11,300 -1,692 Descending FAA TRACON SMA TRACON (SMA)
Sun 10:04:44 PM 44.8292 -92.1136 279° West 249 287 10,900 -1,650 Descending FAA TRACON SMA TRACON (SMA)
Sun 10:05:04 PM 44.8325 -92.1508 277° West 248 285 10,200 -2,250 Descending FAA TRACON SMA TRACON (SMA)
Sun 10:05:24 PM 44.8356 -92.1878 277° West 249 287 9,400 -2,049 Descending FAA TRACON SMA TRACON (SMA)
Sun 10:05:45 PM 44.8392 -92.2178 280° West 250 288 8,800 -1,650 Descending FAA TRACON SMA TRACON (SMA)
Sun 10:06:04 PM 44.8428 -92.2467 280° West 247 284 8,300 -1,950 Descending FAA TRACON SMA TRACON (SMA)
Sun 10:06:25 PM 44.8486 -92.2833 283° West 250 288 7,500 -1,950 Descending FAA TRACON SMA TRACON (SMA)
Sun 10:06:44 PM 44.8503 -92.3131 275° West 247 284 7,000 -1,692 Descending FAA TRACON SMA TRACON (SMA)
Sun 10:07:04 PM 44.8533 -92.3417 279° West 243 280 6,400 -1,500 Descending FAA TRACON SMA TRACON (SMA)
Sun 10:07:24 PM 44.8578 -92.3756 280° West 230 265 6,000 -600 Descending FAA TRACON SMA TRACON (SMA)
Sun 10:07:44 PM 44.8594 -92.4006 275° West 214 246 6,000  Level FAA TRACON SMA TRACON (SMA)
Sun 10:08:05 PM 44.8631 -92.4261 281° West 213 245 6,000  Level FAA TRACON SMA TRACON (SMA)
Sun 10:08:24 PM 44.8667 -92.4586 279° West 217 250 6,000  Level FAA TRACON SMA TRACON (SMA)
Sun 10:08:44 PM 44.8692 -92.4850 278° West 220 253 6,000  Level FAA TRACON SMA TRACON (SMA)
Sun 10:09:04 PM 44.8714 -92.5114 277° West 221 254 6,000 -750 Level FAA TRACON SMA TRACON (SMA)
Sun 10:09:24 PM 44.8761 -92.5450 281° West 225 259 5,500 -1,463 Descending FAA TRACON SMA TRACON (SMA)
Sun 10:09:45 PM 44.8786 -92.5722 277° West 229 264 5,000 -1,500 Descending FAA TRACON SMA TRACON (SMA)
Sun 10:10:04 PM 44.8828 -92.5992 282° West 230 265 4,500 -1,385 Descending FAA TRACON SMA TRACON (SMA)
Sun 10:10:24 PM 44.8858 -92.6264 279° West 228 262 4,100 -750 Descending FAA TRACON SMA TRACON (SMA)
Sun 10:10:44 PM 44.8892 -92.6581 278° West 217 250 4,000 -150 Descending FAA TRACON SMA TRACON (SMA)
Sun 10:11:04 PM 44.8917 -92.6833 278° West 212 244 4,000  Level FAA TRACON SMA TRACON (SMA)
Sun 10:11:25 PM 44.8953 -92.7142 279° West 208 239 4,000  Level FAA TRACON SMA TRACON (SMA)
Sun 10:11:44 PM 44.9017 -92.7383 290° West 216 249 4,000  Level FAA TRACON SMA TRACON (SMA)
Sun 10:12:05 PM 44.9147 -92.7569 315° West 221 254 4,000  Level FAA TRACON SMA TRACON (SMA)
Sun 10:12:24 PM 44.9322 -92.7794 318° Northwest 222 255 4,000  Level FAA TRACON SMA TRACON (SMA)
Sun 10:12:44 PM 44.9453 -92.7967 317° Northwest 215 247 4,000  Level FAA TRACON SMA TRACON (SMA)
Sun 10:13:05 PM 44.9583 -92.8131 318° Northwest 209 241 4,000  Level FAA TRACON SMA TRACON (SMA)
Sun 10:13:24 PM 44.9750 -92.8336 319° Northwest 206 237 4,000  Level FAA TRACON SMA TRACON (SMA)
Sun 10:13:45 PM 44.9886 -92.8500 320° Northwest 206 237 4,000  Level FAA TRACON SMA TRACON (SMA)
Sun 10:14:04 PM 45.0011 -92.8661 318° Northwest 205 236 4,000  Level FAA TRACON SMA TRACON (SMA)
Sun 10:14:24 PM 45.0169 -92.8867 317° Northwest 203 234 4,000  Level FAA TRACON SMA TRACON (SMA)
Sun 10:14:44 PM 45.0297 -92.9028 318° Northwest 201 231 4,000  Level FAA TRACON SMA TRACON (SMA)
Sun 10:15:04 PM 45.0419 -92.9183 318° Northwest 199 229 4,000  Level FAA TRACON SMA TRACON (SMA)
Sun 10:15:25 PM 45.0572 -92.9389 316° Northwest 196 226 4,000  Level FAA TRACON SMA TRACON (SMA)
Sun 10:15:44 PM 45.0706 -92.9558 318° Northwest 201 231 4,000  Level FAA TRACON SMA TRACON (SMA)
Sun 10:16:04 PM 45.0831 -92.9725 317° Northwest 203 234 4,000  Level FAA TRACON SMA TRACON (SMA)
Sun 10:16:24 PM 45.0992 -92.9928 318° Northwest 203 234 4,000  Level FAA TRACON SMA TRACON (SMA)
Sun 10:16:44 PM 45.1119 -93.0092 318° Northwest 204 235 4,000  Level FAA TRACON SMA TRACON (SMA)
Sun 10:17:05 PM 45.1250 -93.0261 318° Northwest 205 236 4,000  Level FAA TRACON SMA TRACON (SMA)
Sun 10:17:24 PM 45.1414 -93.0469 318° Northwest 207 238 4,000  Level FAA TRACON SMA TRACON (SMA)
Sun 10:17:45 PM 45.1475 -93.0686 292° West 208 239 4,000  Level FAA TRACON SMA TRACON (SMA)
Sun 10:18:04 PM 45.1492 -93.0917 276° West 199 229 4,000 -154 Level FAA TRACON SMA TRACON (SMA)
Sun 10:18:24 PM 45.1506 -93.1217 274° West 197 227 3,900 -585 Descending FAA TRACON SMA TRACON (SMA)
Sun 10:18:45 PM 45.1519 -93.1453 275° West 194 223 3,600 -750 Descending FAA TRACON SMA TRACON (SMA)
Sun 10:19:04 PM 45.1478 -93.1664 254° West 191 220 3,400 -300 Descending FAA TRACON SMA TRACON (SMA)
Sun 10:19:25 PM 45.1408 -93.1919 249° West 181 208 3,400  Level FAA TRACON SMA TRACON (SMA)
Sun 10:19:44 PM 45.1297 -93.2061 222° Southwest 183 211 3,400  Level FAA TRACON SMA TRACON (SMA)
Sun 10:20:05 PM 45.1111 -93.2158 200° South 192 221 3,400  Level FAA TRACON SMA TRACON (SMA)
Sun 10:20:25 PM 45.0944 -93.2103 167° South 200 230 3,400  Level FAA TRACON SMA TRACON (SMA)
Sun 10:20:44 PM 45.0800 -93.1994 152° Southeast 196 226 3,400  Level FAA TRACON SMA TRACON (SMA)
Sun 10:21:05 PM 45.0672 -93.1869 145° Southeast 185 213 3,400 -150 Level FAA TRACON SMA TRACON (SMA)
Sun 10:21:24 PM 45.0525 -93.1736 147° Southeast 167 192 3,300 -300 Descending FAA TRACON SMA TRACON (SMA)
Sun 10:21:45 PM 45.0417 -93.1636 147° Southeast 154 177 3,200 -600 Descending FAA TRACON SMA TRACON (SMA)
Sun 10:22:04 PM 45.0311 -93.1533 145° Southeast 149 171 2,900 -923 Descending FAA TRACON SMA TRACON (SMA)
Sun 10:22:24 PM 45.0181 -93.1411 147° Southeast 147 169 2,600 -878 Descending FAA TRACON SMA TRACON (SMA)
Sun 10:22:45 PM 45.0081 -93.1311 145° Southeast 144 166 2,300 -750 Descending FAA TRACON SMA TRACON (SMA)
Sun 10:23:04 PM 44.9983 -93.1217 146° Southeast 142 163 2,100 -750 Descending FAA TRACON SMA TRACON (SMA)
Sun 10:23:25 PM 44.9858 -93.1100 147° Southeast 140 161 1,800 -750 Descending FAA TRACON SMA TRACON (SMA)
Sun 10:23:44 PM 44.9756 -93.0997 145° Southeast 143 165 1,600 -769 Descending FAA TRACON SMA TRACON (SMA)
Sun 10:24:04 PM 44.9656 -93.0903 146° Southeast 141 162 1,300 -878 Descending FAA TRACON SMA TRACON (SMA)
Sun 10:24:25 PM 44.9536 -93.0789 146° Southeast 137 158 1,000 -450 Descending FAA TRACON SMA TRACON (SMA)
Sun 10:24:44 PM 44.9508 -93.0764 148° Southeast 138 159 1,000  Level FAA TRACON SMA TRACON (SMA)

Login

Don't have an account? Register now (free) for customized features, flight alerts, and more!